createdAt,value
2022-08-07T00:01:43.649Z,59509.41
2022-08-07T00:04:04.674Z,58888.28
2022-08-07T00:06:33.535Z,58971.09
2022-08-07T00:09:16.772Z,58724.72
2022-08-07T00:11:54.519Z,58623.28
2022-08-07T00:14:25.554Z,58927.63
2022-08-07T00:16:58.379Z,58838.59
2022-08-07T00:19:25.922Z,58654.34
2022-08-07T00:21:55.589Z,58838.59
2022-08-07T00:24:24.056Z,58873.78
2022-08-07T00:26:58.824Z,59082.88
2022-08-07T00:29:32.642Z,58799.25
2022-08-07T00:32:00.156Z,58900.69
2022-08-07T00:34:27.142Z,58735.09
2022-08-07T00:36:56.188Z,58880.00
2022-08-07T00:39:22.832Z,58859.28
2022-08-07T00:42:04.675Z,58859.28
2022-08-07T00:44:33.308Z,58608.81
2022-08-07T00:47:00.581Z,59273.38
2022-08-07T00:50:21.131Z,58722.66
2022-08-07T00:52:14.812Z,58735.09
2022-08-07T00:54:46.799Z,58701.97
2022-08-07T00:57:21.843Z,59308.56
2022-08-07T00:59:49.076Z,58811.69
2022-08-07T01:02:28.703Z,58766.13
2022-08-07T01:04:58.256Z,58834.44
2022-08-07T01:07:27.643Z,58786.84
2022-08-07T01:10:07.152Z,58747.50
2022-08-07T01:12:38.959Z,58877.94
2022-08-07T01:15:06.786Z,58890.34
2022-08-07T01:17:40.014Z,59111.88
2022-08-07T01:20:16.589Z,58880.00
2022-08-07T01:22:46.720Z,58799.25
2022-08-07T01:25:53.542Z,58851.00
2022-08-07T01:28:06.999Z,58786.84
2022-08-07T01:30:39.206Z,59140.84
2022-08-07T01:33:05.822Z,58706.09
2022-08-07T01:35:53.093Z,59062.19
2022-08-07T01:38:24.967Z,58716.44
2022-08-07T01:40:58.760Z,58834.44
2022-08-07T01:43:26.397Z,58842.72
2022-08-07T01:46:02.017Z,58824.09
2022-08-07T01:48:30.917Z,58770.28
2022-08-07T01:51:24.273Z,58830.31
2022-08-07T01:54:12.497Z,58801.31
2022-08-07T01:56:39.538Z,58853.09
2022-08-07T01:59:09.849Z,58863.44
2022-08-07T02:02:00.139Z,59103.59
2022-08-07T02:04:39.186Z,58807.53
2022-08-07T02:07:24.374Z,58801.31
2022-08-07T02:10:04.900Z,58528.06
2022-08-07T02:12:37.194Z,58579.81
2022-08-07T02:15:06.074Z,58501.16
2022-08-07T02:17:34.757Z,58687.47
2022-08-07T02:20:09.537Z,58971.09
2022-08-07T02:22:44.576Z,58675.06
2022-08-07T02:25:18.123Z,58743.38
2022-08-07T02:27:51.209Z,58598.44
2022-08-07T02:30:19.095Z,58573.63
2022-08-07T02:33:00.991Z,58424.56
2022-08-07T02:36:30.467Z,58554.97
2022-08-07T02:38:28.088Z,58548.78
2022-08-07T02:40:58.952Z,58718.53
2022-08-07T02:43:27.979Z,58726.81
2022-08-07T02:46:01.475Z,58737.16
2022-08-07T02:48:29.903Z,58737.16
2022-08-07T02:50:57.358Z,58675.06
2022-08-07T02:53:38.574Z,59240.25
2022-08-07T02:56:12.826Z,58544.63
2022-08-07T02:58:47.234Z,58594.31
2022-08-07T03:01:18.766Z,58720.59
2022-08-07T03:04:03.441Z,59205.03
2022-08-07T03:06:34.736Z,58853.09
2022-08-07T03:09:07.832Z,58664.69
2022-08-07T03:11:38.359Z,58670.91
2022-08-07T03:14:06.091Z,58629.50
2022-08-07T03:16:33.528Z,58670.91
2022-08-07T03:19:00.473Z,58372.81
2022-08-07T03:21:27.917Z,58583.97
2022-08-07T03:24:21.129Z,58656.41
2022-08-07T03:26:51.241Z,59258.88
2022-08-07T03:29:28.278Z,58557.06
2022-08-07T03:31:55.888Z,59149.13
2022-08-07T03:34:27.153Z,58412.16
2022-08-07T03:36:54.348Z,58542.56
2022-08-07T03:39:46.366Z,58629.50
2022-08-07T03:42:09.440Z,58362.47
2022-08-07T03:44:36.924Z,59029.06
2022-08-07T03:47:13.693Z,58908.97
2022-08-07T03:49:47.760Z,58534.28
2022-08-07T03:52:22.576Z,59093.25
2022-08-07T03:54:54.993Z,58540.50
2022-08-07T03:58:34.646Z,58554.97
2022-08-07T04:00:13.981Z,58472.19
2022-08-07T04:02:43.053Z,58693.69
2022-08-07T04:05:14.083Z,58900.69
2022-08-07T04:07:47.921Z,58623.28
2022-08-07T04:10:18.929Z,58536.34
2022-08-07T04:12:47.398Z,58528.06
2022-08-07T04:15:15.685Z,59260.94
2022-08-07T04:18:57.907Z,58548.78
2022-08-07T04:20:30.728Z,58648.13
2022-08-07T04:23:01.571Z,58710.25
2022-08-07T04:25:29.447Z,58675.06
2022-08-07T04:28:00.401Z,59078.75
2022-08-07T04:30:43.401Z,58490.81
2022-08-07T04:33:14.007Z,58633.66
2022-08-07T04:35:50.582Z,58631.56
2022-08-07T04:38:18.064Z,59010.44
2022-08-07T04:40:52.176Z,58701.97
2022-08-07T04:43:21.786Z,58689.53
2022-08-07T04:46:34.731Z,58629.50
2022-08-07T04:49:28.005Z,58706.09
2022-08-07T04:52:19.251Z,58753.72
2022-08-07T04:55:14.870Z,58981.44
2022-08-07T04:58:31.473Z,58801.31
2022-08-07T05:00:53.954Z,58832.38
2022-08-07T05:03:59.776Z,58979.38
2022-08-07T05:06:19.443Z,59242.31
2022-08-07T05:09:09.622Z,59190.53
2022-08-07T05:11:57.087Z,59202.97
2022-08-07T05:14:55.283Z,59180.19
2022-08-07T05:17:52.577Z,59434.88
2022-08-07T05:20:09.589Z,60159.63
2022-08-07T05:22:37.387Z,59975.31
2022-08-07T05:25:08.771Z,60366.72
2022-08-07T05:28:02.615Z,61151.72
2022-08-07T05:30:32.401Z,61209.72
2022-08-07T05:33:02.502Z,61360.94
2022-08-07T05:35:33.921Z,61878.84
2022-08-07T05:38:09.776Z,61692.38
2022-08-07T05:40:37.862Z,61638.53
2022-08-07T05:43:18.586Z,62034.22
2022-08-07T05:45:47.916Z,61961.72
2022-08-07T05:48:15.217Z,62268.38
2022-08-07T05:50:43.623Z,62454.84
2022-08-07T05:54:12.732Z,63103.47
2022-08-07T05:56:01.998Z,62467.28
2022-08-07T05:58:36.863Z,62724.22
2022-08-07T06:01:05.957Z,62962.56
2022-08-07T06:03:56.410Z,62871.38
2022-08-07T06:06:23.687Z,63088.97
2022-08-07T06:08:57.080Z,63134.56
2022-08-07T06:11:24.926Z,63507.63
2022-08-07T06:14:11.988Z,63594.66
2022-08-07T06:16:38.819Z,63719.03
2022-08-07T06:19:06.648Z,64365.78
2022-08-07T06:22:16.310Z,64133.59
2022-08-07T06:24:46.256Z,64247.63
2022-08-07T06:27:06.659Z,64624.94
2022-08-07T06:29:34.880Z,64631.16
2022-08-07T06:32:05.531Z,64643.59
2022-08-07T06:34:32.126Z,64850.94
2022-08-07T06:36:59.780Z,64618.72
2022-08-07T06:40:16.246Z,64618.72
2022-08-07T06:42:19.181Z,65263.53
2022-08-07T06:44:50.913Z,65135.00
2022-08-07T06:47:18.826Z,65437.72
2022-08-07T06:49:51.569Z,65327.81
2022-08-07T06:52:31.368Z,65149.50
2022-08-07T06:55:31.197Z,65147.44
2022-08-07T06:58:04.254Z,66086.84
2022-08-07T07:00:36.831Z,65752.94
2022-08-07T07:03:08.841Z,65659.63
2022-08-07T07:06:02.532Z,65893.97
2022-08-07T07:08:29.383Z,65404.56
2022-08-07T07:10:57.774Z,65402.47
2022-08-07T07:13:56.073Z,65539.34
2022-08-07T07:16:22.373Z,65933.38
2022-08-07T07:19:11.164Z,65392.09
2022-08-07T07:22:11.808Z,65236.59
2022-08-07T07:24:39.921Z,65203.41
2022-08-07T07:27:12.562Z,65547.63
2022-08-07T07:30:09.103Z,65752.94
2022-08-07T07:32:34.412Z,64817.75
2022-08-07T07:35:03.984Z,64581.41
2022-08-07T07:37:47.398Z,64384.44
2022-08-07T07:40:20.640Z,64009.22
2022-08-07T07:42:55.631Z,63573.94
2022-08-07T07:46:37.884Z,63913.88
2022-08-07T07:48:24.329Z,64635.31
2022-08-07T07:51:08.179Z,64330.56
2022-08-07T07:53:51.357Z,64548.22
2022-08-07T07:56:30.024Z,64204.09
2022-08-07T07:59:01.546Z,64253.84
2022-08-07T08:02:03.992Z,64355.44
2022-08-07T08:04:25.505Z,64942.16
2022-08-07T08:06:55.358Z,65014.72
2022-08-07T08:09:29.655Z,64759.69
2022-08-07T08:12:05.255Z,65103.88
2022-08-07T08:14:34.380Z,65155.72
2022-08-07T08:17:56.521Z,64747.25
2022-08-07T08:20:22.221Z,65659.63
2022-08-07T08:23:08.115Z,64927.63
2022-08-07T08:25:56.206Z,65437.72
2022-08-07T08:28:37.964Z,64956.66
2022-08-07T08:31:13.830Z,65091.44
2022-08-07T08:33:49.133Z,65472.97
2022-08-07T08:36:29.669Z,65340.28
2022-08-07T08:39:01.860Z,65103.88
2022-08-07T08:41:57.819Z,65506.16
2022-08-07T08:44:29.422Z,65630.59
2022-08-07T08:47:07.692Z,65898.09
2022-08-07T08:50:17.545Z,65649.25
2022-08-07T08:53:22.424Z,65960.31
2022-08-07T08:55:58.551Z,65821.38
2022-08-07T08:58:47.597Z,65800.63
2022-08-07T09:01:20.004Z,65852.47
2022-08-07T09:04:13.437Z,66115.88
2022-08-07T09:07:13.610Z,66319.13
2022-08-07T09:10:20.606Z,66335.72
2022-08-07T09:13:11.642Z,65752.94
2022-08-07T09:16:30.603Z,66261.06
2022-08-07T09:19:03.599Z,66624.03
2022-08-07T09:22:09.682Z,66769.25
2022-08-07T09:24:59.347Z,66128.31
2022-08-07T09:28:01.799Z,66684.19
2022-08-07T09:30:57.896Z,66704.94
2022-08-07T09:33:57.323Z,67047.22
2022-08-07T09:36:43.244Z,67107.38
2022-08-07T09:39:54.796Z,67609.44
2022-08-07T09:42:50.221Z,67814.84
2022-08-07T09:47:52.378Z,67381.22
2022-08-07T09:48:50.154Z,66661.38
2022-08-07T09:52:15.800Z,66860.50
2022-08-07T09:54:40.434Z,66462.25
2022-08-07T09:57:21.889Z,66719.47
2022-08-07T10:00:14.471Z,67271.28
2022-08-07T10:04:03.757Z,67223.56
2022-08-07T10:06:17.331Z,65302.94
2022-08-07T10:08:51.311Z,66037.06
2022-08-07T10:12:01.940Z,65844.19
2022-08-07T10:14:37.018Z,65551.78
2022-08-07T10:17:19.188Z,65213.78
2022-08-07T10:20:32.025Z,65153.66
2022-08-07T10:24:06.777Z,66362.69
2022-08-07T10:26:38.721Z,66628.19
2022-08-07T10:29:16.547Z,66999.50
2022-08-07T10:31:58.257Z,66495.44
2022-08-07T10:34:37.554Z,66302.53
2022-08-07T10:37:26.533Z,67078.34
2022-08-07T10:40:20.937Z,67204.88
2022-08-07T10:43:03.468Z,67308.63
2022-08-07T10:45:44.754Z,67675.84
2022-08-07T10:48:20.471Z,67014.03
2022-08-07T10:50:50.397Z,67219.41
2022-08-07T10:53:44.830Z,67014.03
2022-08-07T10:56:32.930Z,67238.06
2022-08-07T10:59:37.380Z,67534.75
2022-08-07T11:02:27.338Z,67578.31
2022-08-07T11:05:35.818Z,68194.56
2022-08-07T11:08:39.678Z,68779.81
2022-08-07T11:11:10.733Z,67557.56
2022-08-07T11:14:44.101Z,67848.06
2022-08-07T11:16:34.837Z,67289.94
2022-08-07T11:19:10.428Z,67621.91
2022-08-07T11:21:42.925Z,67729.78
2022-08-07T11:24:45.650Z,68416.63
2022-08-07T11:27:16.576Z,68234.00
2022-08-07T11:30:18.179Z,67924.81
2022-08-07T11:33:02.792Z,67395.75
2022-08-07T11:36:00.361Z,68155.16
2022-08-07T11:38:33.707Z,68416.63
2022-08-07T11:41:18.249Z,68846.22
2022-08-07T11:44:19.025Z,67916.53
2022-08-07T11:46:53.498Z,67348.03
2022-08-07T11:50:30.117Z,67758.84
2022-08-07T11:52:57.836Z,68202.88
2022-08-07T11:56:25.131Z,67883.31
2022-08-07T11:58:50.357Z,67864.66
2022-08-07T12:01:59.741Z,67875.03
2022-08-07T12:04:46.295Z,67626.03
2022-08-07T12:07:27.277Z,68240.22
2022-08-07T12:10:05.642Z,68788.09
2022-08-07T12:12:41.224Z,68057.63
2022-08-07T12:15:46.467Z,67493.25
2022-08-07T12:18:47.978Z,67829.38
2022-08-07T12:21:55.443Z,67607.38
2022-08-07T12:24:37.258Z,67945.56
2022-08-07T12:27:16.003Z,68518.31
2022-08-07T12:29:51.547Z,67646.78
2022-08-07T12:32:31.288Z,68339.84
2022-08-07T12:34:58.836Z,68746.59
2022-08-07T12:38:09.261Z,67453.84
2022-08-07T12:40:46.456Z,67190.34
2022-08-07T12:43:11.638Z,67003.66
2022-08-07T12:46:26.339Z,67318.97
2022-08-07T12:49:10.288Z,67916.53
2022-08-07T12:52:23.291Z,68549.44
2022-08-07T12:55:17.521Z,68256.84
2022-08-07T12:58:00.515Z,67943.50
2022-08-07T13:00:52.552Z,67327.28
2022-08-07T13:03:54.676Z,67231.84
2022-08-07T13:07:01.253Z,67547.19
2022-08-07T13:10:20.796Z,68244.38
2022-08-07T13:12:54.184Z,68873.19
2022-08-07T13:15:29.726Z,68792.25
2022-08-07T13:18:10.256Z,68860.75
2022-08-07T13:20:59.227Z,67489.09
2022-08-07T13:24:01.679Z,67646.78
2022-08-07T13:26:35.720Z,67640.56
2022-08-07T13:29:26.018Z,66962.16
2022-08-07T13:32:31.245Z,66987.06
2022-08-07T13:34:54.450Z,68121.94
2022-08-07T13:38:06.090Z,67727.72
2022-08-07T13:41:00.642Z,67613.59
2022-08-07T13:43:27.739Z,67464.22
2022-08-07T13:46:12.195Z,67928.97
2022-08-07T13:48:58.396Z,67897.84
2022-08-07T13:52:22.261Z,67845.97
2022-08-07T13:54:16.338Z,67906.16
2022-08-07T13:56:52.007Z,67980.84
2022-08-07T13:59:25.755Z,68219.47
2022-08-07T14:02:03.683Z,68070.06
2022-08-07T14:04:36.374Z,67733.94
2022-08-07T14:07:09.432Z,67711.13
2022-08-07T14:10:17.347Z,67987.06
2022-08-07T14:12:41.606Z,68086.69
2022-08-07T14:15:18.752Z,67464.22
2022-08-07T14:18:15.936Z,66993.28
2022-08-07T14:20:40.308Z,66787.91
2022-08-07T14:23:18.042Z,65974.84
2022-08-07T14:26:01.513Z,66319.13
2022-08-07T14:28:33.184Z,66883.34
2022-08-07T14:31:16.388Z,67439.31
2022-08-07T14:33:45.060Z,67879.19
2022-08-07T14:36:12.941Z,67833.53
2022-08-07T14:38:42.678Z,68725.84
2022-08-07T14:41:33.959Z,68541.13
2022-08-07T14:44:15.722Z,68605.47
2022-08-07T14:49:59.402Z,69128.47
2022-08-07T14:52:21.501Z,68605.47
2022-08-07T14:54:54.649Z,69113.94
2022-08-07T14:57:24.493Z,68319.09
2022-08-07T15:02:39.111Z,69122.25
2022-08-07T15:05:20.626Z,69554.00
2022-08-07T15:07:51.944Z,68900.19
2022-08-07T15:13:05.807Z,68671.88
2022-08-07T15:13:22.354Z,68549.44
2022-08-07T15:15:56.963Z,68640.75
2022-08-07T15:18:34.756Z,68429.06
2022-08-07T15:26:46.980Z,67597.00
2022-08-07T15:30:09.145Z,67464.22
2022-08-07T15:34:57.197Z,67094.94
2022-08-07T15:37:29.409Z,67323.13
2022-08-07T15:43:33.249Z,67236.00
2022-08-07T15:49:12.598Z,67348.03
2022-08-07T15:54:27.387Z,66555.59
2022-08-07T15:56:56.965Z,66223.72
2022-08-07T15:59:38.935Z,66615.75
2022-08-07T16:02:08.580Z,66539.00
2022-08-07T16:04:37.505Z,66721.53
2022-08-07T16:08:28.921Z,66381.34
2022-08-07T16:09:57.893Z,66613.66
2022-08-07T16:12:40.664Z,66941.41
2022-08-07T16:15:57.644Z,66621.97
2022-08-07T16:18:49.603Z,66613.66
2022-08-07T16:22:05.019Z,66383.44
2022-08-07T16:24:52.712Z,66161.50
2022-08-07T16:27:38.996Z,66132.47
2022-08-07T16:30:30.198Z,65881.53
2022-08-07T16:34:01.626Z,65584.97
2022-08-07T16:36:20.686Z,65572.53
2022-08-07T16:39:05.907Z,65425.28
2022-08-07T16:42:06.990Z,65170.25
2022-08-07T16:45:14.060Z,65217.94
2022-08-07T16:47:55.718Z,65170.25
2022-08-07T16:51:13.445Z,65338.19
2022-08-07T16:54:01.109Z,65574.59
2022-08-07T16:56:37.425Z,65450.16
2022-08-07T16:59:46.796Z,65460.53
2022-08-07T17:02:53.904Z,65614.00
2022-08-07T17:06:02.310Z,65336.13
2022-08-07T17:09:09.093Z,65157.78
2022-08-07T17:12:01.437Z,64784.59
2022-08-07T17:14:42.607Z,64438.34
2022-08-07T17:17:19.378Z,64247.63
2022-08-07T17:20:02.055Z,63996.78
2022-08-07T17:23:00.286Z,63913.88
2022-08-07T17:25:51.218Z,64000.94
2022-08-07T17:28:25.157Z,63833.03
2022-08-07T17:31:16.175Z,63818.53
2022-08-07T17:34:17.938Z,63777.06
2022-08-07T17:36:58.120Z,63609.19
2022-08-07T17:39:58.943Z,63723.19
2022-08-07T17:42:58.131Z,63700.38
2022-08-07T17:45:51.197Z,63480.69
2022-08-07T17:48:31.197Z,63578.09
2022-08-07T17:51:23.255Z,63569.81
2022-08-07T17:54:13.108Z,63435.06
2022-08-07T17:57:02.794Z,63331.44
2022-08-07T17:59:50.592Z,63687.94
2022-08-07T18:02:36.390Z,63256.84
2022-08-07T18:05:20.700Z,63186.38
2022-08-07T18:07:58.322Z,63246.47
2022-08-07T18:12:06.697Z,63225.75
2022-08-07T18:13:48.327Z,63120.06
2022-08-07T18:16:32.845Z,63097.25
2022-08-07T18:21:10.555Z,63126.28
2022-08-07T18:22:11.496Z,63037.16
2022-08-07T18:24:53.964Z,63088.97
2022-08-07T18:27:57.565Z,62993.63
2022-08-07T18:30:36.731Z,62972.91
2022-08-07T18:33:54.947Z,62840.28
2022-08-07T18:37:09.315Z,62757.38
2022-08-07T18:40:18.528Z,62676.56
2022-08-07T18:43:06.455Z,62483.84
2022-08-07T18:46:25.979Z,62419.63
2022-08-07T18:50:30.355Z,62693.16
2022-08-07T18:52:40.952Z,62210.34
2022-08-07T18:55:57.325Z,62452.78
2022-08-07T18:58:38.243Z,62007.31
2022-08-07T19:02:34.609Z,61936.84
2022-08-07T19:04:06.515Z,61839.47
2022-08-07T19:06:41.294Z,61742.09
2022-08-07T19:09:57.159Z,61704.81
2022-08-07T19:12:30.040Z,61561.88
2022-08-07T19:16:04.877Z,61549.44
2022-08-07T19:18:45.056Z,61412.72
2022-08-07T19:21:47.639Z,61360.94
2022-08-07T19:24:33.672Z,61340.22
2022-08-07T19:28:29.121Z,61222.13
2022-08-07T19:30:58.758Z,61143.41
2022-08-07T19:32:50.947Z,61095.78
2022-08-07T19:35:25.220Z,61015.00
2022-08-07T19:37:57.759Z,60934.22
2022-08-07T19:40:31.696Z,60824.44
2022-08-07T19:43:07.638Z,60888.66
2022-08-07T19:46:08.364Z,60838.94
2022-08-07T19:48:53.887Z,60884.50
2022-08-07T19:51:24.199Z,60809.94
2022-08-07T19:54:33.179Z,60768.50
2022-08-07T19:58:01.572Z,60822.38
2022-08-07T19:59:49.709Z,60812.00
2022-08-07T20:02:27.350Z,60783.00
2022-08-07T20:04:56.029Z,60654.59
2022-08-07T20:07:47.455Z,60706.38
2022-08-07T20:10:36.967Z,60640.09
2022-08-07T20:13:01.871Z,60629.75
2022-08-07T20:15:37.108Z,60577.97
2022-08-07T20:18:06.243Z,60789.22
2022-08-07T20:20:41.706Z,60466.13
2022-08-07T20:23:23.283Z,60544.81
2022-08-07T20:26:04.419Z,60466.13
2022-08-07T20:28:38.517Z,60631.81
2022-08-07T20:31:21.038Z,60609.03
2022-08-07T20:33:56.722Z,60468.19
2022-08-07T20:36:26.159Z,60611.09
2022-08-07T20:39:00.612Z,60399.84
2022-08-07T20:41:34.152Z,60534.47
2022-08-07T20:44:05.061Z,60513.75
2022-08-07T20:46:43.799Z,60381.22
2022-08-07T20:50:01.087Z,60702.22
2022-08-07T20:51:59.998Z,60343.94
2022-08-07T20:54:29.687Z,60420.56
2022-08-07T20:57:03.773Z,60375.00
2022-08-07T21:00:06.636Z,60323.22
2022-08-07T21:02:39.977Z,60391.56
2022-08-07T21:05:16.666Z,60468.19
2022-08-07T21:07:43.540Z,60370.84
2022-08-07T21:10:25.101Z,60443.34
2022-08-07T21:12:58.328Z,60356.34
2022-08-07T21:15:47.558Z,60366.72
2022-08-07T21:18:20.435Z,60383.28
2022-08-07T21:21:00.487Z,60292.16
2022-08-07T21:23:50.988Z,60439.19
2022-08-07T21:26:39.613Z,60372.94
2022-08-07T21:29:18.621Z,60333.56
2022-08-07T21:32:43.541Z,60261.09
2022-08-07T21:34:48.576Z,60296.31
2022-08-07T21:37:23.234Z,60314.94
2022-08-07T21:39:56.493Z,60217.59
2022-08-07T21:42:42.675Z,60279.72
2022-08-07T21:46:07.512Z,60290.09
2022-08-07T21:48:42.544Z,60167.91
2022-08-07T21:51:25.205Z,60138.91
2022-08-07T21:53:55.149Z,60105.78
2022-08-07T21:56:39.570Z,60132.69
2022-08-07T22:00:04.486Z,60064.34
2022-08-07T22:02:41.705Z,60105.78
2022-08-07T22:05:21.713Z,60039.50
2022-08-07T22:08:00.664Z,60043.66
2022-08-07T22:10:33.648Z,60018.78
2022-08-07T22:13:05.849Z,60089.19
2022-08-07T22:16:42.409Z,60457.84
2022-08-07T22:18:35.916Z,59950.47
2022-08-07T22:21:11.634Z,60006.38
2022-08-07T22:23:53.051Z,59952.53
2022-08-07T22:26:44.279Z,59981.53
2022-08-07T22:29:38.098Z,59935.97
2022-08-07T22:32:38.047Z,59900.75
2022-08-07T22:35:11.072Z,60209.31
2022-08-07T22:38:04.325Z,59985.66
2022-08-07T22:40:54.914Z,59996.03
2022-08-07T22:43:33.982Z,59762.03
2022-08-07T22:46:21.241Z,59813.78
2022-08-07T22:49:02.272Z,59762.03
2022-08-07T22:51:52.259Z,59666.78
2022-08-07T22:54:37.321Z,59743.38
2022-08-07T22:57:45.708Z,59755.81
2022-08-07T23:00:28.594Z,59770.31
2022-08-07T23:02:57.425Z,59751.66
2022-08-07T23:06:08.980Z,59654.34
2022-08-07T23:10:04.947Z,59672.97
2022-08-07T23:12:20.964Z,59662.63
2022-08-07T23:16:05.364Z,59639.84
2022-08-07T23:18:42.387Z,59629.50
2022-08-07T23:21:09.508Z,59646.06
2022-08-07T23:24:06.554Z,59592.22
2022-08-07T23:26:55.040Z,59577.72
2022-08-07T23:30:39.253Z,59577.72
2022-08-07T23:34:20.742Z,59569.44
2022-08-07T23:36:10.604Z,59554.97
2022-08-07T23:39:08.718Z,59488.69
2022-08-07T23:42:04.618Z,59476.28
2022-08-07T23:45:15.397Z,59517.69
2022-08-07T23:48:01.962Z,59534.25
2022-08-07T23:51:02.323Z,59490.78
2022-08-07T23:53:49.575Z,59482.47
2022-08-07T23:56:37.957Z,59428.66
